Time;durP1;ratioP1;P1;durP2;ratioP2;P2;SDS_P1;SDS_P2;PMS_P1;PMS_P2;Temp;Humidity;BMP_temperature;BMP_pressure;BME280_temperature;BME280_humidity;BME280_pressure;Samples;Min_cycle;Max_cycle;Signal;HPM_P1;HPM_P2
2023/03/23 00:06:45;;;;;;;;;;;;;;;11.85;95.64;100333.94;20509566;28;19926;-60
2023/03/23 00:17:05;;;;;;;;;;;;;;;11.94;95.38;100313.63;20500721;28;19929;-59
2023/03/23 00:27:25;;;;;;;;;;;;;;;11.94;94.64;100292.06;20509806;28;19948;-59
2023/03/23 00:37:46;;;;;;;;;;;;;;;11.93;96.22;100265.31;20524207;28;19978;-59
2023/03/23 00:48:06;;;;;;;;;;;;;;;11.98;95.75;100259.91;20499951;28;19926;-60
2023/03/23 00:58:26;;;;;;;;;;;;;;;12.02;94.43;100243.28;20501683;28;19922;-58
2023/03/23 01:08:47;;;;;;;;;;;;;;;12.02;95.05;100238.97;20515574;28;20399;-57
2023/03/23 01:19:07;;;;;;;;;;;;;;;12.04;94.86;100238.88;20529471;28;19923;-58
2023/03/23 01:29:28;;;;;;;;;;;;;;;12.12;94.19;100239.38;20524687;28;20269;-58
2023/03/23 01:39:48;;;;;;;;;;;;;;;12.26;92.43;100236.13;20527709;28;19993;-58
2023/03/23 01:50:08;;;;;;;;;;;;;;;12.21;93.11;100218.22;20512944;28;21307;-59
2023/03/23 02:00:30;;;;;;;;;;;;;;;12.23;93.14;100174.88;20514337;28;19929;-59
2023/03/23 02:10:50;;;;;;;;;;;;;;;12.26;91.46;100159.16;20515278;28;20010;-59
2023/03/23 02:21:29;;;;;;;;;;;;;;;12.28;91.64;100148.72;20506964;28;19946;-58
2023/03/23 02:32:00;;;;;;;;;;;;;;;12.27;90.80;100178.19;20517021;28;19926;-60
2023/03/23 02:42:24;;;;;;;;;;;;;;;12.29;89.92;100147.81;20511032;28;20290;-59
2023/03/23 02:52:46;;;;;;;;;;;;;;;12.23;90.76;100143.75;20540152;28;20377;-59
2023/03/23 03:03:12;;;;;;;;;;;;;;;12.23;91.40;100125.59;20528844;28;19922;-58
2023/03/23 03:13:45;;;;;;;;;;;;;;;12.18;90.85;100122.38;20511644;28;19926;-59
2023/03/23 03:24:10;;;;;;;;;;;;;;;12.18;90.65;100104.22;20510331;28;20301;-58
2023/03/23 03:34:32;;;;;;;;;;;;;;;12.28;89.23;100120.19;20529271;28;19922;-59
2023/03/23 03:44:52;;;;;;;;;;;;;;;12.22;89.78;100110.94;20517765;28;19967;-57
2023/03/23 03:55:12;;;;;;;;;;;;;;;12.24;89.32;100109.09;20507741;28;19926;-60
2023/03/23 04:05:33;;;;;;;;;;;;;;;12.25;89.28;100110.78;20515541;28;20022;-60
2023/03/23 04:15:53;;;;;;;;;;;;;;;12.28;88.85;100115.84;20503234;28;20028;-60
2023/03/23 04:26:13;;;;;;;;;;;;;;;12.30;87.93;100101.03;20503276;28;19969;-60
2023/03/23 04:36:34;;;;;;;;;;;;;;;12.25;88.58;100100.41;20493480;28;19970;-59
2023/03/23 04:46:54;;;;;;;;;;;;;;;12.27;87.83;100095.97;20510786;28;19927;-60
2023/03/23 04:57:15;;;;;;;;;;;;;;;12.22;88.39;100090.19;20522781;28;20273;-59
2023/03/23 05:07:36;;;;;;;;;;;;;;;12.26;88.04;100090.88;20524165;28;19926;-59
2023/03/23 05:17:56;;;;;;;;;;;;;;;12.21;88.27;100078.16;20530832;28;19922;-59
2023/03/23 05:28:18;;;;;;;;;;;;;;;12.23;87.53;100070.28;20520680;28;19922;-59
2023/03/23 05:38:44;;;;;;;;;;;;;;;12.17;88.10;100071.41;20529196;28;19992;-60
2023/03/23 05:49:04;;;;;;;;;;;;;;;12.21;87.73;100072.94;20510504;28;19933;-59
2023/03/23 05:59:25;;;;;;;;;;;;;;;12.21;88.32;100072.94;20510683;28;19976;-60
2023/03/23 06:09:45;;;;;;;;;;;;;;;12.31;87.61;100094.91;20523771;28;19933;-60
2023/03/23 06:20:09;;;;;;;;;;;;;;;12.45;87.48;100099.44;20510353;28;19933;-59
2023/03/23 06:30:31;;;;;;;;;;;;;;;12.37;89.41;100128.34;20517159;28;19933;-60
2023/03/23 06:40:52;;;;;;;;;;;;;;;12.18;91.64;100144.88;20518209;28;19930;-58
2023/03/23 06:51:12;;;;;;;;;;;;;;;12.02;94.53;100191.44;20499484;28;19930;-58
2023/03/23 07:01:33;;;;;;;;;;;;;;;11.93;90.92;100191.84;20528475;28;19933;-59
2023/03/23 07:11:53;;;;;;;;;;;;;;;11.69;90.61;100192.97;20512801;28;19975;-58
2023/03/23 07:22:13;;;;;;;;;;;;;;;11.57;90.17;100188.31;20527474;28;19928;-59
2023/03/23 07:32:34;;;;;;;;;;;;;;;11.54;90.35;100199.63;20512220;28;19958;-60
2023/03/23 07:42:55;;;;;;;;;;;;;;;11.58;90.56;100210.69;20507501;28;20393;-59
2023/03/23 07:53:16;;;;;;;;;;;;;;;11.57;92.90;100214.22;20520359;28;19927;-60
2023/03/23 08:03:37;;;;;;;;;;;;;;;11.69;91.50;100213.69;20505023;28;19930;-61
2023/03/23 08:13:57;;;;;;;;;;;;;;;11.91;90.86;100245.53;20502264;28;19929;-60
2023/03/23 08:24:18;;;;;;;;;;;;;;;12.09;90.06;100248.13;20507756;28;20020;-60
2023/03/23 08:34:38;;;;;;;;;;;;;;;12.20;88.81;100252.81;20504301;28;19926;-59
2023/03/23 08:44:59;;;;;;;;;;;;;;;12.41;87.52;100257.03;20523784;28;19926;-60
2023/03/23 08:55:20;;;;;;;;;;;;;;;12.58;86.90;100262.25;20532867;28;19922;-59
2023/03/23 09:05:45;;;;;;;;;;;;;;;12.79;85.82;100263.00;20532026;28;19969;-60
2023/03/23 09:16:06;;;;;;;;;;;;;;;12.88;84.10;100270.34;20544873;28;19922;-60
2023/03/23 09:26:27;;;;;;;;;;;;;;;12.96;85.20;100265.63;20539975;28;19951;-61
2023/03/23 09:36:49;;;;;;;;;;;;;;;12.94;85.87;100273.50;20538828;28;19976;-59
2023/03/23 09:47:12;;;;;;;;;;;;;;;13.02;86.54;100288.69;20522344;28;19922;-59
2023/03/23 09:57:43;;;;;;;;;;;;;;;13.15;86.48;100296.78;20506250;28;19981;-60
2023/03/23 10:08:13;;;;;;;;;;;;;;;13.23;84.54;100305.03;20523209;28;19927;-59
2023/03/23 10:18:52;;;;;;;;;;;;;;;13.32;81.88;100333.16;20493895;28;20414;-60
2023/03/23 10:29:16;;;;;;;;;;;;;;;13.37;81.30;100302.59;20538425;28;20009;-60
2023/03/23 10:40:09;;;;;;;;;;;;;;;13.29;81.28;100330.72;20534832;28;20346;-59
2023/03/23 10:50:30;;;;;;;;;;;;;;;13.43;82.04;100341.25;20498042;28;20006;-59
2023/03/23 11:00:51;;;;;;;;;;;;;;;13.40;82.59;100313.69;20534169;28;19933;-59
2023/03/23 11:11:15;;;;;;;;;;;;;;;13.60;81.54;100341.28;20511387;28;19922;-60
2023/03/23 11:21:36;;;;;;;;;;;;;;;13.76;81.19;100326.56;20504225;28;19925;-60
2023/03/23 11:31:59;;;;;;;;;;;;;;;14.02;79.34;100315.66;20504627;28;19961;-59
2023/03/23 11:42:21;;;;;;;;;;;;;;;14.08;78.07;100331.78;20498880;28;19989;-60
2023/03/23 11:53:02;;;;;;;;;;;;;;;14.29;75.61;100316.84;20503321;28;19925;-60
2023/03/23 12:03:46;;;;;;;;;;;;;;;14.43;76.00;100309.13;20504202;28;20216;-60
2023/03/23 12:14:06;;;;;;;;;;;;;;;14.55;73.72;100324.09;20491928;28;19933;-60
2023/03/23 12:24:39;;;;;;;;;;;;;;;14.65;72.71;100324.44;20501402;28;20034;-60
2023/03/23 12:35:03;;;;;;;;;;;;;;;14.75;72.50;100326.44;20515104;28;19925;-58
2023/03/23 12:45:23;;;;;;;;;;;;;;;15.04;71.12;100317.84;20515795;28;19926;-59
2023/03/23 12:55:44;;;;;;;;;;;;;;;15.19;69.95;100321.34;20502206;28;19933;-61
2023/03/23 13:06:08;;;;;;;;;;;;;;;15.32;70.82;100317.09;20510921;28;20275;-60
2023/03/23 13:16:39;;;;;;;;;;;;;;;15.44;68.63;100331.25;20511150;28;20354;-60
2023/03/23 13:27:01;;;;;;;;;;;;;;;15.51;68.87;100332.56;20538312;28;19932;-59
2023/03/23 13:37:24;;;;;;;;;;;;;;;15.61;67.72;100321.50;20530224;28;20422;-60
2023/03/23 13:47:46;;;;;;;;;;;;;;;15.59;68.44;100318.13;20532114;28;20405;-61
2023/03/23 13:58:06;;;;;;;;;;;;;;;15.81;67.74;100325.53;20521056;28;19929;-60
2023/03/23 14:08:27;;;;;;;;;;;;;;;15.80;68.37;100313.44;20493408;28;20585;-60
2023/03/23 14:18:58;;;;;;;;;;;;;;;15.81;68.29;100322.91;20541662;28;19976;-59
2023/03/23 14:29:19;;;;;;;;;;;;;;;15.90;66.98;100320.59;20520111;28;19989;-58
2023/03/23 14:39:40;;;;;;;;;;;;;;;16.07;64.70;100343.09;20514827;28;19944;-60
2023/03/23 14:50:04;;;;;;;;;;;;;;;16.19;67.38;100344.13;20521764;28;19937;-60
2023/03/23 15:00:30;;;;;;;;;;;;;;;15.71;69.75;100353.09;20508179;28;19929;-61
2023/03/23 15:10:55;;;;;;;;;;;;;;;15.54;65.18;100353.25;20510614;28;20039;-61
2023/03/23 15:21:35;;;;;;;;;;;;;;;14.88;72.35;100379.56;20508181;28;20028;-60
2023/03/23 15:31:55;;;;;;;;;;;;;;;14.94;70.64;100373.97;20483467;28;19969;-60
2023/03/23 15:42:30;;;;;;;;;;;;;;;14.99;71.29;100385.03;20505465;28;20297;-59
2023/03/23 15:52:51;;;;;;;;;;;;;;;14.92;70.66;100385.44;20500424;28;20006;-59
2023/03/23 16:03:15;;;;;;;;;;;;;;;15.49;68.19;100368.31;20538889;28;19933;-61
2023/03/23 16:13:37;;;;;;;;;;;;;;;15.46;68.89;100329.38;20512012;28;19929;-61
2023/03/23 16:23:58;;;;;;;;;;;;;;;15.31;69.37;100348.50;20506476;28;19941;-61
2023/03/23 16:34:19;;;;;;;;;;;;;;;15.30;69.77;100362.44;20524031;28;19926;-59
2023/03/23 16:44:41;;;;;;;;;;;;;;;15.13;67.22;100359.03;20520642;28;19981;-60
2023/03/23 16:55:03;;;;;;;;;;;;;;;14.97;72.24;100368.63;20526925;28;20345;-59
2023/03/23 17:05:25;;;;;;;;;;;;;;;14.71;72.12;100382.22;20518701;28;19930;-60
2023/03/23 17:15:50;;;;;;;;;;;;;;;14.35;74.20;100396.38;20530870;28;20337;-60
2023/03/23 17:26:13;;;;;;;;;;;;;;;14.13;74.92;100402.66;20524646;28;19984;-61
2023/03/23 17:36:34;;;;;;;;;;;;;;;13.91;75.64;100415.06;20536909;28;19980;-60
2023/03/23 17:46:56;;;;;;;;;;;;;;;13.82;76.03;100427.69;20539611;28;20005;-60
2023/03/23 17:57:17;;;;;;;;;;;;;;;13.79;76.37;100423.47;20525168;28;19922;-58
2023/03/23 18:07:39;;;;;;;;;;;;;;;13.64;76.85;100400.00;20533011;28;19929;-59
2023/03/23 18:18:02;;;;;;;;;;;;;;;13.53;75.52;100402.28;20536098;28;20012;-59
2023/03/23 18:28:24;;;;;;;;;;;;;;;13.49;76.40;100406.78;20529565;28;19930;-60
2023/03/23 18:38:46;;;;;;;;;;;;;;;13.43;76.25;100429.63;20533193;28;19928;-58
2023/03/23 18:49:07;;;;;;;;;;;;;;;13.41;76.84;100413.25;20502386;28;19926;-60
2023/03/23 18:59:33;;;;;;;;;;;;;;;13.28;77.61;100410.41;20520194;28;19980;-59
2023/03/23 19:09:55;;;;;;;;;;;;;;;13.26;78.17;100393.22;20512242;28;19969;-59
2023/03/23 19:20:16;;;;;;;;;;;;;;;13.10;78.98;100393.94;20505890;28;19926;-59
2023/03/23 19:30:58;;;;;;;;;;;;;;;13.07;79.53;100368.09;20520277;28;20026;-59
2023/03/23 19:41:20;;;;;;;;;;;;;;;12.94;80.18;100387.78;20511705;28;19958;-58
2023/03/23 19:51:42;;;;;;;;;;;;;;;12.87;81.17;100370.75;20519315;28;20313;-59
2023/03/23 20:02:03;;;;;;;;;;;;;;;12.85;81.02;100363.97;20504220;28;19926;-58
2023/03/23 20:12:25;;;;;;;;;;;;;;;12.88;81.38;100350.84;20503054;28;20116;-59
2023/03/23 20:22:46;;;;;;;;;;;;;;;12.93;81.41;100354.91;20502740;28;20366;-60
2023/03/23 20:33:11;;;;;;;;;;;;;;;13.06;81.34;100345.66;20517851;28;20456;-61
2023/03/23 20:43:32;;;;;;;;;;;;;;;12.97;82.08;100327.88;20507682;28;19923;-59
2023/03/23 20:53:54;;;;;;;;;;;;;;;12.94;82.39;100320.25;20513396;28;19969;-60
2023/03/23 21:04:21;;;;;;;;;;;;;;;12.96;83.49;100313.22;20507947;28;19933;-59
2023/03/23 21:14:43;;;;;;;;;;;;;;;12.99;82.05;100296.63;20513116;28;19930;-60
2023/03/23 21:25:05;;;;;;;;;;;;;;;12.98;81.93;100275.00;20512400;28;19937;-61
2023/03/23 21:35:27;;;;;;;;;;;;;;;12.98;82.68;100263.81;20483499;28;19933;-59
2023/03/23 21:45:48;;;;;;;;;;;;;;;12.86;83.10;100243.59;20527485;28;19925;-60
2023/03/23 21:56:10;;;;;;;;;;;;;;;12.84;83.52;100229.84;20517196;28;20450;-61
2023/03/23 22:06:33;;;;;;;;;;;;;;;12.81;83.46;100212.69;20511847;28;19923;-58
2023/03/23 22:16:54;;;;;;;;;;;;;;;12.81;83.67;100199.72;20518837;28;19945;-58
2023/03/23 22:27:16;;;;;;;;;;;;;;;12.80;84.01;100173.81;20512928;28;19980;-60
2023/03/23 22:37:37;;;;;;;;;;;;;;;12.82;84.49;100167.63;20520969;28;19966;-58
2023/03/23 22:47:59;;;;;;;;;;;;;;;12.82;84.89;100146.84;20513615;28;19976;-58
2023/03/23 22:58:21;;;;;;;;;;;;;;;12.77;85.13;100135.00;20525405;28;19922;-58
2023/03/23 23:08:44;;;;;;;;;;;;;;;12.70;86.64;100115.47;20503807;28;19933;-59
2023/03/23 23:19:06;;;;;;;;;;;;;;;12.64;86.72;100103.63;20510543;28;20286;-58
2023/03/23 23:29:27;;;;;;;;;;;;;;;12.58;89.96;100083.16;20522053;28;19934;-60
2023/03/23 23:39:49;;;;;;;;;;;;;;;12.53;87.16;100072.19;20522897;28;19930;-59
2023/03/23 23:50:11;;;;;;;;;;;;;;;12.44;88.27;100059.69;20521213;28;19929;-60
